createdAt,value
2022-12-18T00:02:00.374Z,-2.82
2022-12-18T00:06:03.394Z,-2.82
2022-12-18T00:10:05.748Z,-2.86
2022-12-18T00:14:07.463Z,-2.87
2022-12-18T00:18:09.608Z,-2.96
2022-12-18T00:22:11.290Z,-2.96
2022-12-18T00:26:16.764Z,-2.95
2022-12-18T00:30:18.670Z,-2.99
2022-12-18T00:34:20.409Z,-3.01
2022-12-18T00:38:22.187Z,-3.04
2022-12-18T00:42:44.039Z,-3.01
2022-12-18T00:46:46.615Z,-2.97
2022-12-18T00:50:49.550Z,-2.98
2022-12-18T00:54:51.220Z,-3.06
2022-12-18T00:58:53.174Z,-3.13
2022-12-18T01:02:55.030Z,-3.07
2022-12-18T01:06:56.934Z,-3.09
2022-12-18T01:10:58.668Z,-3.09
2022-12-18T01:15:00.876Z,-3.14
2022-12-18T01:19:02.894Z,-3.19
2022-12-18T01:23:04.681Z,-3.22
2022-12-18T01:27:06.409Z,-3.26
2022-12-18T01:31:19.924Z,-3.24
2022-12-18T01:35:22.049Z,-3.24
2022-12-18T01:39:23.781Z,-3.23
2022-12-18T01:43:45.601Z,-3.23
2022-12-18T01:48:09.760Z,-3.30
2022-12-18T01:52:12.260Z,-3.33
2022-12-18T01:56:19.776Z,-3.34
2022-12-18T02:00:23.347Z,-3.34
2022-12-18T02:04:28.537Z,-3.43
2022-12-18T02:08:47.213Z,-3.47
2022-12-18T02:13:06.840Z,-3.46
2022-12-18T02:17:23.119Z,-3.49
2022-12-18T02:21:49.738Z,-3.52
2022-12-18T02:26:00.981Z,-3.54
2022-12-18T02:30:06.086Z,-3.54
2022-12-18T02:34:09.496Z,-3.49
2022-12-18T02:38:15.361Z,-3.49
2022-12-18T02:42:20.332Z,-3.49
2022-12-18T02:46:31.614Z,-3.46
2022-12-18T02:50:55.046Z,-3.44
2022-12-18T02:55:32.100Z,-3.46
2022-12-18T02:59:48.645Z,-3.51
2022-12-18T03:04:00.735Z,-3.55
2022-12-18T03:08:14.301Z,-3.57
2022-12-18T03:12:25.306Z,-3.60
2022-12-18T03:16:32.323Z,-3.62
2022-12-18T03:20:38.065Z,-3.66
2022-12-18T03:24:40.951Z,-3.76
2022-12-18T03:28:53.091Z,-3.80
2022-12-18T03:33:25.101Z,-3.84
2022-12-18T03:37:29.186Z,-3.85
2022-12-18T03:41:38.320Z,-3.86
2022-12-18T03:46:09.060Z,-3.89
2022-12-18T03:50:20.514Z,-3.92
2022-12-18T03:54:27.972Z,-3.93
2022-12-18T03:58:39.481Z,-3.93
2022-12-18T04:02:58.233Z,-3.95
2022-12-18T04:07:08.887Z,-3.99
2022-12-18T04:11:13.653Z,-4.01
2022-12-18T04:15:15.989Z,-4.00
2022-12-18T04:19:18.770Z,-4.02
2022-12-18T04:23:24.811Z,-4.02
2022-12-18T04:27:28.421Z,-4.01
2022-12-18T04:31:30.555Z,-4.06
2022-12-18T04:35:32.802Z,-4.09
2022-12-18T04:39:34.906Z,-4.15
2022-12-18T04:43:42.241Z,-4.19
2022-12-18T04:47:44.162Z,-4.26
2022-12-18T04:51:45.858Z,-4.31
2022-12-18T04:55:47.600Z,-4.36
2022-12-18T04:59:49.363Z,-4.40
2022-12-18T05:03:53.193Z,-4.43
2022-12-18T05:07:54.918Z,-4.49
2022-12-18T05:11:56.640Z,-4.55
2022-12-18T05:15:58.912Z,-4.59
2022-12-18T05:20:00.670Z,-4.61
2022-12-18T05:24:02.665Z,-4.61
2022-12-18T05:28:04.376Z,-4.60
2022-12-18T05:32:06.099Z,-4.59
2022-12-18T05:36:09.752Z,-4.60
2022-12-18T05:40:12.623Z,-4.61
2022-12-18T05:44:14.371Z,-4.62
2022-12-18T05:48:17.282Z,-4.65
2022-12-18T05:52:18.996Z,-4.66
2022-12-18T05:56:23.421Z,-4.68
2022-12-18T06:00:25.122Z,-4.80
2022-12-18T06:04:33.948Z,-4.88
2022-12-18T06:08:35.649Z,-4.94
2022-12-18T06:12:37.473Z,-5.02
2022-12-18T06:16:39.283Z,-5.12
2022-12-18T06:20:42.430Z,-5.15
2022-12-18T06:24:44.203Z,-5.21
2022-12-18T06:28:46.077Z,-5.29
2022-12-18T06:32:53.192Z,-5.33
2022-12-18T06:36:58.177Z,-5.40
2022-12-18T06:40:59.859Z,-5.40
2022-12-18T06:45:01.624Z,-5.42
2022-12-18T06:49:03.361Z,-5.42
2022-12-18T06:53:05.053Z,-5.43
2022-12-18T06:57:08.828Z,-5.42
2022-12-18T07:01:12.531Z,-5.43
2022-12-18T07:05:14.368Z,-5.39
2022-12-18T07:09:16.100Z,-5.40
2022-12-18T07:13:18.295Z,-5.40
2022-12-18T07:17:20.018Z,-5.38
2022-12-18T07:21:23.235Z,-5.35
2022-12-18T07:25:24.949Z,-5.33
2022-12-18T07:29:26.724Z,-5.36
2022-12-18T07:33:28.485Z,-5.37
2022-12-18T07:37:30.937Z,-5.37
2022-12-18T07:41:32.965Z,-5.40
2022-12-18T07:45:44.126Z,-5.40
2022-12-18T07:49:45.851Z,-5.38
2022-12-18T07:53:49.337Z,-5.34
2022-12-18T07:57:57.763Z,-5.32
2022-12-18T08:02:05.770Z,-5.30
2022-12-18T08:06:10.884Z,-5.31
2022-12-18T08:10:12.636Z,-5.31
2022-12-18T08:14:15.821Z,-5.30
2022-12-18T08:18:17.507Z,-5.27
2022-12-18T08:22:19.325Z,-5.28
2022-12-18T08:26:22.284Z,-5.27
2022-12-18T08:30:23.919Z,-5.27
2022-12-18T08:34:25.964Z,-5.27
2022-12-18T08:38:28.151Z,-5.22
2022-12-18T08:42:48.429Z,-5.20
2022-12-18T08:46:50.222Z,-5.14
2022-12-18T08:50:59.552Z,-5.09
2022-12-18T08:55:01.554Z,-5.02
2022-12-18T08:59:03.697Z,-4.95
2022-12-18T09:03:05.658Z,-4.90
2022-12-18T09:07:07.473Z,-4.86
2022-12-18T09:11:24.364Z,-4.81
2022-12-18T09:15:26.170Z,-4.76
2022-12-18T09:19:27.993Z,-4.74
2022-12-18T09:23:29.749Z,-4.73
2022-12-18T09:27:31.592Z,-4.74
2022-12-18T09:31:34.289Z,-4.71
2022-12-18T09:35:37.941Z,-4.69
2022-12-18T09:39:41.030Z,-4.65
2022-12-18T09:43:58.355Z,-4.64
2022-12-18T09:48:02.835Z,-4.56
2022-12-18T09:52:16.182Z,-4.48
2022-12-18T09:56:20.571Z,-4.42
2022-12-18T10:00:24.463Z,-4.37
2022-12-18T10:04:31.696Z,-4.34
2022-12-18T10:08:40.541Z,-4.29
2022-12-18T10:12:46.117Z,-4.26
2022-12-18T10:17:04.033Z,-4.20
2022-12-18T10:21:13.414Z,-4.15
2022-12-18T10:25:55.021Z,-4.06
2022-12-18T10:29:57.089Z,-4.03
2022-12-18T10:33:58.788Z,-4.00
2022-12-18T10:38:12.743Z,-3.97
2022-12-18T10:42:20.543Z,-3.90
2022-12-18T10:46:22.427Z,-3.83
2022-12-18T10:51:01.845Z,-3.81
2022-12-18T10:54:59.395Z,-3.75
2022-12-18T10:59:10.107Z,-3.68
2022-12-18T11:03:32.616Z,-3.58
2022-12-18T11:07:51.170Z,-3.54
2022-12-18T11:11:55.920Z,-3.49
2022-12-18T11:15:58.256Z,-3.44
2022-12-18T11:20:02.738Z,-3.40
2022-12-18T11:24:04.780Z,-3.36
2022-12-18T11:28:28.025Z,-3.30
2022-12-18T11:32:40.494Z,-3.25
2022-12-18T11:36:49.498Z,-3.20
2022-12-18T11:40:57.616Z,-3.15
2022-12-18T11:45:25.798Z,-3.13
2022-12-18T11:49:35.218Z,-3.10
2022-12-18T11:53:39.270Z,-3.04
2022-12-18T11:57:57.205Z,-2.99
2022-12-18T12:02:19.803Z,-2.96
2022-12-18T12:06:29.786Z,-2.92
2022-12-18T12:10:55.969Z,-2.89
2022-12-18T12:14:57.624Z,-2.87
2022-12-18T12:19:14.281Z,-2.84
2022-12-18T12:23:30.709Z,-2.81
2022-12-18T12:27:59.227Z,-2.79
2022-12-18T12:32:21.908Z,-2.75
2022-12-18T12:36:54.785Z,-2.71
2022-12-18T12:41:30.144Z,-2.65
2022-12-18T12:45:41.494Z,-2.60
2022-12-18T12:49:48.726Z,-2.54
2022-12-18T12:53:54.059Z,-2.49
2022-12-18T12:57:59.154Z,-2.45
2022-12-18T13:02:38.052Z,-2.44
2022-12-18T13:06:55.638Z,-2.45
2022-12-18T13:11:18.593Z,-2.41
2022-12-18T13:15:29.965Z,-2.38
2022-12-18T13:19:32.662Z,-2.35
2022-12-18T13:23:37.830Z,-2.34
2022-12-18T13:27:45.587Z,-2.33
2022-12-18T13:31:50.031Z,-2.33
2022-12-18T13:35:51.768Z,-2.31
2022-12-18T13:39:53.571Z,-2.30
2022-12-18T13:44:14.766Z,-2.30
2022-12-18T13:48:22.756Z,-2.30
2022-12-18T13:52:28.102Z,-2.27
2022-12-18T13:56:33.298Z,-2.25
2022-12-18T14:00:35.699Z,-2.24
2022-12-18T14:04:37.460Z,-2.21
2022-12-18T14:08:42.339Z,-2.20
2022-12-18T14:13:03.071Z,-2.18
2022-12-18T14:17:11.571Z,-2.18
2022-12-18T14:21:28.143Z,-2.16
2022-12-18T14:25:31.622Z,-2.18
2022-12-18T14:29:35.964Z,-2.16
2022-12-18T14:33:39.574Z,-2.16
2022-12-18T14:37:41.492Z,-2.14
2022-12-18T14:41:43.225Z,-2.13
2022-12-18T14:45:47.131Z,-2.12
2022-12-18T14:49:49.632Z,-2.13
2022-12-18T14:54:03.459Z,-2.09
2022-12-18T14:58:05.174Z,-2.10
2022-12-18T15:02:29.465Z,-2.08
2022-12-18T15:06:42.768Z,-2.08
2022-12-18T15:10:49.751Z,-2.07
2022-12-18T15:14:51.420Z,-2.04
2022-12-18T15:18:54.622Z,-2.02
2022-12-18T15:22:56.413Z,-2.00
2022-12-18T15:26:58.562Z,-1.98
2022-12-18T15:31:03.420Z,-1.96
2022-12-18T15:35:16.197Z,-1.95
2022-12-18T15:39:17.899Z,-1.91
2022-12-18T15:43:48.865Z,-1.91
2022-12-18T15:47:50.638Z,-1.89
2022-12-18T15:51:59.130Z,-1.88
2022-12-18T15:56:19.543Z,-1.86
2022-12-18T16:00:22.028Z,-1.84
2022-12-18T16:04:24.645Z,-1.82
2022-12-18T16:08:26.429Z,-1.80
2022-12-18T16:12:28.194Z,-1.77
2022-12-18T16:16:29.981Z,-1.75
2022-12-18T16:20:33.043Z,-1.73
2022-12-18T16:24:37.245Z,-1.73
2022-12-18T16:28:42.499Z,-1.71
2022-12-18T16:32:47.105Z,-1.68
2022-12-18T16:36:50.123Z,-1.66
2022-12-18T16:41:10.201Z,-1.64
2022-12-18T16:45:16.106Z,-1.62
2022-12-18T16:49:19.435Z,-1.60
2022-12-18T16:53:21.159Z,-1.57
2022-12-18T16:57:25.357Z,-1.54
2022-12-18T17:01:30.302Z,-1.52
2022-12-18T17:05:33.939Z,-1.49
2022-12-18T17:09:36.551Z,-1.48
2022-12-18T17:13:39.006Z,-1.46
2022-12-18T17:17:40.990Z,-1.45
2022-12-18T17:21:44.405Z,-1.42
2022-12-18T17:25:46.143Z,-1.41
2022-12-18T17:29:48.974Z,-1.39
2022-12-18T17:33:51.733Z,-1.37
2022-12-18T17:37:53.454Z,-1.36
2022-12-18T17:41:55.197Z,-1.33
2022-12-18T17:45:58.112Z,-1.32
2022-12-18T17:50:07.911Z,-1.30
2022-12-18T17:54:10.597Z,-1.26
2022-12-18T17:58:12.374Z,-1.26
2022-12-18T18:02:14.201Z,-1.22
2022-12-18T18:06:16.094Z,-1.22
2022-12-18T18:10:17.902Z,-1.19
2022-12-18T18:14:20.918Z,-1.18
2022-12-18T18:18:22.627Z,-1.15
2022-12-18T18:22:26.103Z,-1.13
2022-12-18T18:26:31.384Z,-1.10
2022-12-18T18:30:33.078Z,-1.08
2022-12-18T18:34:34.998Z,-1.04
2022-12-18T18:38:36.674Z,-1.01
2022-12-18T18:42:38.430Z,-0.96
2022-12-18T18:46:40.125Z,-0.95
2022-12-18T18:50:44.142Z,-0.91
2022-12-18T18:55:11.636Z,-0.90
2022-12-18T18:59:09.690Z,-0.89
2022-12-18T19:03:12.469Z,-0.90
2022-12-18T19:07:25.411Z,-0.88
2022-12-18T19:11:51.306Z,-0.86
2022-12-18T19:15:56.080Z,-0.86
2022-12-18T19:19:58.058Z,-0.85
2022-12-18T19:24:00.171Z,-0.85
2022-12-18T19:28:01.954Z,-0.84
2022-12-18T19:32:06.625Z,-0.83
2022-12-18T19:36:25.325Z,-0.83
2022-12-18T19:40:27.352Z,-0.82
2022-12-18T19:44:30.400Z,-0.78
2022-12-18T19:48:35.641Z,-0.78
2022-12-18T19:52:37.392Z,-0.77
2022-12-18T19:56:39.093Z,-0.75
2022-12-18T20:00:40.785Z,-0.73
2022-12-18T20:04:42.514Z,-0.71
2022-12-18T20:08:44.471Z,-0.70
2022-12-18T20:12:46.272Z,-0.71
2022-12-18T20:16:48.499Z,-0.69
2022-12-18T20:20:50.823Z,-0.67
2022-12-18T20:24:53.776Z,-0.65
2022-12-18T20:28:56.651Z,-0.64
2022-12-18T20:32:58.385Z,-0.62
2022-12-18T20:37:00.099Z,-0.62
2022-12-18T20:41:04.925Z,-0.61
2022-12-18T20:45:07.338Z,-0.61
2022-12-18T20:49:09.752Z,-0.60
2022-12-18T20:53:11.470Z,-0.58
2022-12-18T20:57:13.252Z,-0.58
2022-12-18T21:01:18.407Z,-0.57
2022-12-18T21:05:20.361Z,-0.56
2022-12-18T21:09:22.297Z,-0.56
2022-12-18T21:13:23.971Z,-0.54
2022-12-18T21:17:26.827Z,-0.53
2022-12-18T21:21:30.085Z,-0.52
2022-12-18T21:25:39.414Z,-0.51
2022-12-18T21:29:41.224Z,-0.50
2022-12-18T21:33:43.024Z,-0.49
2022-12-18T21:37:44.721Z,-0.46
2022-12-18T21:42:05.413Z,-0.43
2022-12-18T21:46:07.180Z,-0.44
2022-12-18T21:50:09.268Z,-0.43
2022-12-18T21:54:11.568Z,-0.41
2022-12-18T21:58:13.294Z,-0.39
2022-12-18T22:02:18.623Z,-0.36
2022-12-18T22:06:20.591Z,-0.35
2022-12-18T22:10:22.320Z,-0.34
2022-12-18T22:14:24.389Z,-0.33
2022-12-18T22:18:26.094Z,-0.31
2022-12-18T22:22:27.867Z,-0.30
2022-12-18T22:26:36.414Z,-0.28
2022-12-18T22:30:41.210Z,-0.27
2022-12-18T22:34:43.268Z,-0.25
2022-12-18T22:38:47.146Z,-0.22
2022-12-18T22:42:48.881Z,-0.21
2022-12-18T22:47:05.542Z,-0.19
2022-12-18T22:51:16.206Z,-0.18
2022-12-18T22:55:18.289Z,-0.15
2022-12-18T22:59:23.331Z,-0.14
2022-12-18T23:03:25.037Z,-0.12
2022-12-18T23:07:26.833Z,-0.11
2022-12-18T23:11:28.549Z,-0.08
2022-12-18T23:15:30.372Z,-0.07
2022-12-18T23:19:32.081Z,-0.06
2022-12-18T23:23:35.229Z,-0.05
2022-12-18T23:27:36.996Z,-0.01
2022-12-18T23:31:39.581Z,-0.01
2022-12-18T23:35:41.393Z,0.01
2022-12-18T23:39:43.102Z,0.02
2022-12-18T23:43:45.467Z,0.03
2022-12-18T23:47:51.038Z,0.08
2022-12-18T23:51:54.384Z,0.10
2022-12-18T23:55:56.204Z,0.14
2022-12-18T23:59:58.895Z,0.17
